Blaine, Kansas
Current Conditions -  °F | °C
As of 7:52 AM on Monday 24 Nov 2014 (Local Time) from KMHK Reporting Station
Few Clouds Few Clouds  
Wind Chill: 27°   Ceiling: Unl
Heat Index: 34°   Visibility: 10mi
Dew Point: 26°   Wind: 8mph
Humidity: 73%   Direction: 280°W
Pressure: 29.74"   Gusts: NA
Location:  39.4392°N, 96.4104°W
Report Text: KMHK 241352Z 28007KT 10SM FEW048 01/M03 A2974 RMK AO2 SLP075 T00111033
Loading
Personal Weather Stations






























Interactive Weather Map New forecast layout! Learn more

10-Day Weather Forecast

Advertisements
Track Severe Weather on mobile